createdAt,value
2022-12-04T00:00:37.468Z,3.20
2022-12-04T00:03:05.520Z,3.30
2022-12-04T00:05:33.344Z,3.30
2022-12-04T00:08:01.241Z,3.30
2022-12-04T00:10:29.242Z,3.40
2022-12-04T00:12:58.742Z,3.40
2022-12-04T00:17:55.285Z,3.30
2022-12-04T00:20:24.285Z,3.30
2022-12-04T00:22:52.979Z,3.30
2022-12-04T00:25:20.834Z,3.30
2022-12-04T00:27:48.589Z,3.30
2022-12-04T00:30:18.001Z,3.30
2022-12-04T00:32:45.825Z,3.40
2022-12-04T00:35:13.757Z,3.40
2022-12-04T00:37:41.573Z,3.40
2022-12-04T00:40:10.469Z,3.40
2022-12-04T00:42:38.340Z,3.40
2022-12-04T00:45:07.201Z,3.50
2022-12-04T00:47:36.777Z,3.50
2022-12-04T00:50:05.330Z,3.50
2022-12-04T00:52:33.150Z,3.60
2022-12-04T00:55:01.010Z,3.60
2022-12-04T00:57:28.912Z,3.50
2022-12-04T00:59:57.005Z,3.50
2022-12-04T05:05:27.187Z,3.10
2022-12-04T05:07:54.999Z,3.10
2022-12-04T05:10:22.874Z,3.10
2022-12-04T05:12:51.752Z,3.10
2022-12-04T05:15:19.621Z,3.10
2022-12-04T05:25:12.638Z,3.10
2022-12-04T05:27:40.421Z,3.10
2022-12-04T05:30:09.475Z,3.10
2022-12-04T05:32:37.263Z,3.00
2022-12-04T05:35:10.796Z,3.00
2022-12-04T05:37:41.313Z,3.00
2022-12-04T05:40:10.088Z,2.90
2022-12-04T05:42:38.392Z,2.90
2022-12-04T05:45:07.307Z,2.90
2022-12-04T05:47:39.598Z,2.80
2022-12-04T05:50:09.099Z,2.80
2022-12-04T05:52:37.204Z,2.80
2022-12-04T05:55:08.209Z,2.70
2022-12-04T05:57:35.969Z,2.70
2022-12-04T06:00:03.814Z,2.70
2022-12-04T06:02:31.827Z,2.70
2022-12-04T06:05:00.034Z,2.70
2022-12-04T06:07:27.920Z,2.70
2022-12-04T06:09:56.460Z,2.70
2022-12-04T06:12:25.785Z,2.60
2022-12-04T06:14:53.809Z,2.60
2022-12-04T06:17:21.625Z,2.60
2022-12-04T06:19:49.561Z,2.60
2022-12-04T06:22:17.399Z,2.60
2022-12-04T06:24:45.314Z,2.60
2022-12-04T06:27:28.948Z,2.70
2022-12-04T06:29:58.712Z,2.60
2022-12-04T06:32:26.855Z,2.70
2022-12-04T06:34:56.032Z,2.60
2022-12-04T06:37:25.526Z,2.60
2022-12-04T06:39:53.677Z,2.60
2022-12-04T06:42:21.717Z,2.60
2022-12-04T06:44:50.373Z,2.60
2022-12-04T06:47:20.144Z,2.60
2022-12-04T06:49:50.939Z,2.60
2022-12-04T06:52:19.492Z,2.60
2022-12-04T06:54:47.405Z,2.60
2022-12-04T06:57:15.289Z,2.60
2022-12-04T06:59:43.121Z,2.60
2022-12-04T07:02:11.639Z,2.60
2022-12-04T07:04:40.902Z,2.60
2022-12-04T07:07:10.003Z,2.50
2022-12-04T07:09:38.108Z,2.50
2022-12-04T07:12:06.922Z,2.50
2022-12-04T07:17:02.997Z,2.60
2022-12-04T07:19:30.788Z,2.50
2022-12-04T07:21:59.952Z,2.50
2022-12-04T07:24:27.793Z,2.60
2022-12-04T07:29:23.913Z,2.50
2022-12-04T07:31:51.696Z,2.50
2022-12-04T07:36:47.769Z,2.50
2022-12-04T07:39:17.070Z,2.50
2022-12-04T07:41:45.189Z,2.50
2022-12-04T07:44:13.107Z,2.60
2022-12-04T07:46:41.103Z,2.60
2022-12-04T07:49:12.722Z,2.60
2022-12-04T07:51:40.571Z,2.60
2022-12-04T07:54:09.477Z,2.60
2022-12-04T07:56:38.697Z,2.60
2022-12-04T07:59:06.658Z,2.60
2022-12-04T08:01:34.945Z,2.60
2022-12-04T08:04:04.414Z,2.60
2022-12-04T08:06:34.512Z,2.60
2022-12-04T08:09:09.192Z,2.60
2022-12-04T08:11:39.509Z,2.70
2022-12-04T08:14:09.027Z,2.70
2022-12-04T08:16:37.212Z,2.70
2022-12-04T08:19:05.531Z,2.70
2022-12-04T08:21:34.410Z,2.70
2022-12-04T08:24:02.693Z,2.70
2022-12-04T08:26:33.446Z,2.70
2022-12-04T08:29:03.920Z,2.70
2022-12-04T08:31:33.879Z,2.80
2022-12-04T08:34:04.517Z,2.70
2022-12-04T08:36:33.248Z,2.80
2022-12-04T08:39:01.061Z,2.80
2022-12-04T08:41:29.084Z,2.80
2022-12-04T08:43:57.885Z,2.80
2022-12-04T08:46:28.519Z,2.80
2022-12-04T08:48:57.717Z,2.80
2022-12-04T08:51:27.318Z,2.80
2022-12-04T08:53:56.727Z,2.80
2022-12-04T08:56:25.297Z,2.80
2022-12-04T08:58:53.637Z,2.80
2022-12-04T09:01:21.727Z,2.80
2022-12-04T09:03:50.979Z,2.80
2022-12-04T09:06:19.279Z,2.80
2022-12-04T09:08:47.096Z,2.80
2022-12-04T09:11:17.660Z,2.80
2022-12-04T09:13:46.600Z,2.90
2022-12-04T09:16:16.552Z,2.90
2022-12-04T09:18:45.215Z,2.90
2022-12-04T09:21:15.909Z,2.90
2022-12-04T09:23:45.521Z,2.90
2022-12-04T09:26:21.657Z,2.90
2022-12-04T09:28:50.195Z,3.00
2022-12-04T09:31:19.323Z,3.00
2022-12-04T09:33:47.483Z,3.00
2022-12-04T09:36:17.353Z,3.00
2022-12-04T09:38:46.756Z,3.00
2022-12-04T09:41:30.783Z,3.00
2022-12-04T09:44:01.336Z,3.10
2022-12-04T09:46:37.610Z,3.10
2022-12-04T09:49:22.043Z,3.10
2022-12-04T09:51:53.746Z,3.20
2022-12-04T09:54:25.576Z,3.20
2022-12-04T09:56:57.026Z,3.20
2022-12-04T09:59:27.197Z,3.30
2022-12-04T10:02:01.159Z,3.20
2022-12-04T10:04:29.069Z,3.30
2022-12-04T10:07:05.931Z,3.40
2022-12-04T10:09:40.929Z,1.50
2022-12-04T10:12:23.369Z,3.30
2022-12-04T10:15:01.694Z,3.30
2022-12-04T10:17:54.086Z,3.30
2022-12-04T10:20:39.573Z,3.40
2022-12-04T10:23:20.457Z,3.40
2022-12-04T10:25:51.047Z,3.60
2022-12-04T10:28:24.266Z,3.40
2022-12-04T10:30:55.021Z,3.40
2022-12-04T10:33:29.586Z,3.40
2022-12-04T10:38:36.424Z,3.50
2022-12-04T10:41:14.735Z,3.50
2022-12-04T10:43:45.133Z,3.50
2022-12-04T10:46:16.407Z,3.50
2022-12-04T10:48:47.112Z,3.50
2022-12-04T10:51:17.543Z,3.40
2022-12-04T10:53:49.314Z,3.50
2022-12-04T10:56:21.034Z,3.50
2022-12-04T10:59:00.279Z,3.50
2022-12-04T11:01:30.097Z,3.50
2022-12-04T11:04:03.246Z,3.50
2022-12-04T11:06:32.256Z,3.60
2022-12-04T11:09:03.944Z,3.60
2022-12-04T11:11:34.570Z,3.60
2022-12-04T11:14:08.525Z,3.60
2022-12-04T11:19:21.563Z,3.60
2022-12-04T11:21:50.250Z,3.60
2022-12-04T11:24:25.028Z,3.60
2022-12-04T11:26:53.663Z,3.60
2022-12-04T11:29:27.391Z,3.70
2022-12-04T11:32:00.251Z,3.70
2022-12-04T11:34:36.339Z,3.70
2022-12-04T11:37:04.660Z,3.70
2022-12-04T11:39:37.736Z,3.70
2022-12-04T11:42:16.470Z,3.70
2022-12-04T11:44:52.675Z,3.70
2022-12-04T11:47:22.463Z,3.70
2022-12-04T11:50:05.996Z,3.70
2022-12-04T11:52:52.378Z,3.70
2022-12-04T11:55:29.029Z,3.70
2022-12-04T11:58:19.271Z,3.80
2022-12-04T12:01:06.878Z,3.80
2022-12-04T12:03:41.945Z,3.80
2022-12-04T12:06:26.873Z,3.80
2022-12-04T12:09:19.417Z,3.80
2022-12-04T12:11:54.698Z,3.70
2022-12-04T12:14:33.131Z,3.80
2022-12-04T12:17:12.812Z,3.80
2022-12-04T12:20:08.086Z,3.90
2022-12-04T12:22:57.407Z,3.90
2022-12-04T12:25:30.736Z,3.90
2022-12-04T12:28:14.300Z,3.90
2022-12-04T12:30:54.758Z,3.90
2022-12-04T12:33:25.853Z,3.90
2022-12-04T12:36:01.030Z,4.00
2022-12-04T12:38:34.732Z,4.00
2022-12-04T12:41:07.379Z,4.00
2022-12-04T12:43:39.281Z,4.00
2022-12-04T12:46:12.237Z,4.00
2022-12-04T12:48:46.523Z,4.00
2022-12-04T12:51:30.008Z,4.00
2022-12-04T12:54:10.242Z,4.00
2022-12-04T12:56:49.212Z,4.00
2022-12-04T12:59:21.865Z,4.00
2022-12-04T13:01:59.946Z,4.00
2022-12-04T13:04:34.885Z,4.00
2022-12-04T13:07:11.731Z,4.00
2022-12-04T13:09:46.729Z,4.00
2022-12-04T13:12:17.858Z,4.00
2022-12-04T13:14:49.207Z,3.90
2022-12-04T13:17:32.274Z,3.90
2022-12-04T13:20:08.271Z,3.90
2022-12-04T13:22:45.590Z,4.00
2022-12-04T13:25:29.147Z,4.00
2022-12-04T13:28:10.185Z,4.00
2022-12-04T13:30:47.708Z,4.00
2022-12-04T13:33:39.516Z,4.00
2022-12-04T13:36:27.658Z,4.00
2022-12-04T13:42:07.024Z,4.00
2022-12-04T13:44:38.817Z,3.90
2022-12-04T13:47:09.896Z,3.90
2022-12-04T13:49:42.056Z,3.90
2022-12-04T13:52:23.695Z,3.90
2022-12-04T13:54:59.051Z,3.90
2022-12-04T13:57:28.420Z,3.90
2022-12-04T14:00:12.467Z,3.90
2022-12-04T14:02:50.670Z,3.80
2022-12-04T14:05:28.608Z,3.80
2022-12-04T14:08:07.844Z,3.90
2022-12-04T14:10:39.851Z,3.90
2022-12-04T14:13:17.339Z,3.90
2022-12-04T14:15:45.368Z,3.90
2022-12-04T14:18:27.656Z,3.90
2022-12-04T14:21:00.901Z,3.90
2022-12-04T14:23:36.000Z,3.90
2022-12-04T14:26:05.248Z,3.90
2022-12-04T14:28:42.699Z,3.90
2022-12-04T14:31:31.970Z,3.90
2022-12-04T14:34:04.800Z,3.80
2022-12-04T14:36:43.982Z,3.80
2022-12-04T14:39:18.800Z,3.80
2022-12-04T14:41:46.847Z,3.80
2022-12-04T14:44:26.415Z,3.80
2022-12-04T14:46:58.560Z,3.80
2022-12-04T14:49:45.857Z,3.80
2022-12-04T14:52:19.824Z,3.90
2022-12-04T14:54:57.336Z,3.90
2022-12-04T14:57:47.383Z,3.90
2022-12-04T15:00:20.688Z,3.90
2022-12-04T15:02:54.454Z,3.90
2022-12-04T15:05:26.943Z,4.00
2022-12-04T15:07:58.274Z,4.00
2022-12-04T15:10:46.287Z,3.90
2022-12-04T15:13:21.398Z,3.90
2022-12-04T15:15:49.805Z,3.90
2022-12-04T15:18:18.957Z,3.90
2022-12-04T15:20:58.487Z,3.90
2022-12-04T15:23:30.093Z,4.00
2022-12-04T15:25:59.219Z,4.00
2022-12-04T15:28:31.284Z,4.00
2022-12-04T15:31:03.103Z,4.00
2022-12-04T15:33:37.040Z,4.00
2022-12-04T15:36:09.861Z,4.00
2022-12-04T15:38:37.939Z,4.00
2022-12-04T15:41:05.751Z,4.00
2022-12-04T15:43:40.647Z,4.00
2022-12-04T15:46:15.948Z,4.00
2022-12-04T15:48:47.675Z,4.00
2022-12-04T15:51:20.053Z,4.00
2022-12-04T15:53:48.557Z,4.00
2022-12-04T15:56:19.993Z,4.00
2022-12-04T15:58:56.795Z,4.00
2022-12-04T16:01:24.869Z,4.00
2022-12-04T16:03:54.225Z,4.00
2022-12-04T16:06:25.081Z,4.00
2022-12-04T16:08:55.043Z,4.00
2022-12-04T16:11:32.197Z,4.00
2022-12-04T16:14:07.112Z,4.00
2022-12-04T16:16:36.935Z,4.00
2022-12-04T16:19:09.715Z,4.00
2022-12-04T16:21:38.823Z,4.00
2022-12-04T16:24:08.257Z,4.00
2022-12-04T16:26:36.022Z,4.00
2022-12-04T16:29:03.903Z,4.00
2022-12-04T16:31:31.764Z,4.00
2022-12-04T16:33:59.631Z,4.00
2022-12-04T16:36:27.426Z,4.00
2022-12-04T16:38:56.613Z,4.00
2022-12-04T16:41:24.734Z,4.00
2022-12-04T16:43:55.987Z,4.00
2022-12-04T16:46:25.428Z,4.00
2022-12-04T16:48:53.600Z,4.00
2022-12-04T16:51:23.427Z,4.00
2022-12-04T16:53:52.510Z,4.00
2022-12-04T16:58:50.179Z,4.00
2022-12-04T17:01:22.513Z,4.00
2022-12-04T17:03:50.914Z,4.00
2022-12-04T17:06:19.197Z,4.00
2022-12-04T17:08:47.223Z,4.00
2022-12-04T17:11:16.339Z,4.00
2022-12-04T17:16:15.263Z,3.90
2022-12-04T17:18:43.200Z,3.90
2022-12-04T17:21:13.024Z,3.90
2022-12-04T17:23:41.022Z,3.90
2022-12-04T17:26:10.525Z,3.90
2022-12-04T17:28:39.103Z,3.90
2022-12-04T17:31:15.273Z,4.00
2022-12-04T17:33:43.395Z,3.90
2022-12-04T17:36:11.935Z,3.90
2022-12-04T17:38:40.709Z,4.00
2022-12-04T17:41:10.407Z,3.90
2022-12-04T17:43:39.357Z,3.90
2022-12-04T17:46:12.004Z,3.90
2022-12-04T17:48:39.895Z,3.90
2022-12-04T17:51:09.604Z,3.90
2022-12-04T17:53:38.175Z,3.90
2022-12-04T17:56:08.333Z,3.90
2022-12-04T17:58:36.798Z,3.90
2022-12-04T18:01:07.415Z,3.90
2022-12-04T18:03:37.569Z,3.90
2022-12-04T18:08:43.979Z,3.80
2022-12-04T18:11:14.827Z,3.80
2022-12-04T18:13:42.661Z,3.80
2022-12-04T18:16:12.266Z,3.80
2022-12-04T18:18:41.479Z,3.80
2022-12-04T18:21:12.184Z,3.80
2022-12-04T18:23:44.962Z,3.80
2022-12-04T18:26:13.849Z,3.70
2022-12-04T18:28:41.970Z,3.80
2022-12-04T18:31:10.980Z,3.80
2022-12-04T18:33:42.174Z,3.80
2022-12-04T18:36:14.197Z,3.70
2022-12-04T18:38:42.037Z,3.80
2022-12-04T18:41:11.669Z,3.80
2022-12-04T18:43:41.048Z,3.80
2022-12-04T18:46:11.273Z,3.80
2022-12-04T18:48:42.107Z,3.70
2022-12-04T18:51:18.113Z,3.80
2022-12-04T18:53:46.524Z,3.80
2022-12-04T18:56:15.268Z,3.80
2022-12-04T18:58:43.359Z,3.90
2022-12-04T19:01:13.731Z,3.90
2022-12-04T19:03:43.512Z,3.90
2022-12-04T19:06:12.125Z,4.00
2022-12-04T19:08:43.220Z,4.00
2022-12-04T19:11:15.675Z,4.00
2022-12-04T19:13:43.803Z,4.00
2022-12-04T19:18:45.027Z,3.90
2022-12-04T19:21:13.408Z,4.00
2022-12-04T19:23:41.668Z,4.00
2022-12-04T19:26:10.149Z,4.00
2022-12-04T19:28:38.924Z,4.00
2022-12-04T19:31:14.686Z,4.00
2022-12-04T19:33:43.842Z,4.00
2022-12-04T19:36:13.345Z,4.10
2022-12-04T19:38:41.891Z,4.10
2022-12-04T19:41:12.453Z,4.10
2022-12-04T19:43:41.747Z,4.10
2022-12-04T19:48:39.468Z,4.10
2022-12-04T19:51:11.220Z,4.00
2022-12-04T19:53:41.274Z,4.00
2022-12-04T19:56:11.354Z,4.00
2022-12-04T19:58:39.296Z,4.00
2022-12-04T20:01:09.396Z,3.90
2022-12-04T20:06:06.518Z,3.90
2022-12-04T20:13:32.567Z,4.00
2022-12-04T20:18:31.051Z,4.00
2022-12-04T20:21:00.351Z,4.10
2022-12-04T20:23:28.880Z,4.00
2022-12-04T20:28:26.499Z,4.00
2022-12-04T20:38:19.461Z,4.00
2022-12-04T20:40:47.578Z,4.00
2022-12-04T20:45:46.233Z,4.00
2022-12-04T20:48:14.208Z,4.10
2022-12-04T20:50:45.853Z,4.10
2022-12-04T20:53:13.661Z,4.10
2022-12-04T20:58:09.669Z,4.10
2022-12-04T21:00:38.948Z,4.10
2022-12-04T21:03:07.863Z,4.10
2022-12-04T21:05:35.894Z,4.10
2022-12-04T21:08:03.684Z,4.10
2022-12-04T21:10:32.952Z,4.10
2022-12-04T21:13:18.334Z,4.10
2022-12-04T21:16:03.498Z,4.10
2022-12-04T21:18:31.387Z,4.10
2022-12-04T21:20:59.217Z,4.10
2022-12-04T21:28:26.864Z,4.40
2022-12-04T21:31:01.617Z,4.20
2022-12-04T21:33:31.495Z,4.20
2022-12-04T21:36:03.591Z,4.20
2022-12-04T21:38:34.045Z,4.20
2022-12-04T21:41:01.862Z,4.20
2022-12-04T21:43:30.228Z,4.20
2022-12-04T21:46:05.822Z,4.20
2022-12-04T21:48:38.100Z,4.20
2022-12-04T21:51:21.239Z,4.20
2022-12-04T21:53:55.490Z,4.20
2022-12-04T21:56:26.851Z,4.10
2022-12-04T22:01:26.680Z,4.10
2022-12-04T22:03:56.377Z,4.10
2022-12-04T22:06:25.927Z,4.10
2022-12-04T22:08:53.975Z,4.10
2022-12-04T22:11:22.691Z,4.10
2022-12-04T22:13:50.532Z,4.10
2022-12-04T22:16:25.616Z,4.00
2022-12-04T22:18:59.982Z,4.00
2022-12-04T22:21:29.044Z,4.10
2022-12-04T22:23:57.779Z,4.00
2022-12-04T22:26:26.288Z,4.00
2022-12-04T22:28:54.119Z,4.00
2022-12-04T22:31:24.518Z,4.00
2022-12-04T22:33:54.798Z,4.00
2022-12-04T22:36:26.165Z,4.00
2022-12-04T22:39:11.058Z,4.00
2022-12-04T22:41:39.376Z,4.00
2022-12-04T22:44:07.129Z,4.00
2022-12-04T22:46:34.940Z,4.00
2022-12-04T22:49:03.142Z,4.00
2022-12-04T22:51:32.371Z,4.00
2022-12-04T22:54:00.171Z,4.00
2022-12-04T22:56:29.510Z,4.00
2022-12-04T22:58:59.042Z,4.00
2022-12-04T23:01:28.386Z,4.00
2022-12-04T23:03:57.189Z,4.00
2022-12-04T23:06:29.716Z,4.00
2022-12-04T23:09:01.031Z,4.00
2022-12-04T23:11:29.342Z,4.00
2022-12-04T23:14:00.138Z,4.00
2022-12-04T23:16:30.480Z,4.00
2022-12-04T23:21:27.500Z,4.00
2022-12-04T23:23:56.211Z,4.00
2022-12-04T23:26:28.187Z,4.00
2022-12-04T23:28:56.804Z,4.00
2022-12-04T23:33:53.372Z,4.00
2022-12-04T23:36:21.760Z,4.00
2022-12-04T23:38:50.129Z,4.00
2022-12-04T23:41:19.893Z,4.00
2022-12-04T23:43:50.069Z,4.00
2022-12-04T23:46:19.769Z,4.00
2022-12-04T23:48:48.790Z,4.00
2022-12-04T23:51:19.017Z,4.00
2022-12-04T23:53:47.175Z,4.00
2022-12-04T23:56:17.612Z,4.00
2022-12-04T23:58:46.678Z,4.00
